sensor_id;sensor_type;location;lat;lon;timestamp;P1;durP1;ratioP1;P2;durP2;ratioP2
19891;SDS011;10108;50.142;8.724;2023-07-20T00:02:02;9.57;;;5.35;;
19891;SDS011;10108;50.142;8.724;2023-07-20T00:04:31;8.48;;;5.05;;
19891;SDS011;10108;50.142;8.724;2023-07-20T00:06:57;9.55;;;5.03;;
19891;SDS011;10108;50.142;8.724;2023-07-20T00:09:26;10.73;;;5.13;;
19891;SDS011;10108;50.142;8.724;2023-07-20T00:11:53;8.88;;;4.88;;
19891;SDS011;10108;50.142;8.724;2023-07-20T00:14:19;7.07;;;4.50;;
19891;SDS011;10108;50.142;8.724;2023-07-20T00:16:45;7.53;;;4.70;;
19891;SDS011;10108;50.142;8.724;2023-07-20T00:19:12;9.63;;;5.00;;
19891;SDS011;10108;50.142;8.724;2023-07-20T00:21:38;7.78;;;4.68;;
19891;SDS011;10108;50.142;8.724;2023-07-20T00:24:06;8.90;;;4.80;;
19891;SDS011;10108;50.142;8.724;2023-07-20T00:26:32;10.30;;;5.18;;
19891;SDS011;10108;50.142;8.724;2023-07-20T00:28:58;9.07;;;4.80;;
19891;SDS011;10108;50.142;8.724;2023-07-20T00:31:24;10.18;;;4.85;;
19891;SDS011;10108;50.142;8.724;2023-07-20T00:33:51;8.68;;;4.55;;
19891;SDS011;10108;50.142;8.724;2023-07-20T00:36:17;12.38;;;5.18;;
19891;SDS011;10108;50.142;8.724;2023-07-20T00:38:43;9.68;;;4.95;;
19891;SDS011;10108;50.142;8.724;2023-07-20T00:41:09;8.40;;;4.97;;
19891;SDS011;10108;50.142;8.724;2023-07-20T00:43:35;8.57;;;4.80;;
19891;SDS011;10108;50.142;8.724;2023-07-20T00:46:01;9.27;;;5.07;;
19891;SDS011;10108;50.142;8.724;2023-07-20T00:48:29;8.68;;;5.20;;
19891;SDS011;10108;50.142;8.724;2023-07-20T00:50:56;9.68;;;5.18;;
19891;SDS011;10108;50.142;8.724;2023-07-20T00:53:23;8.35;;;5.00;;
19891;SDS011;10108;50.142;8.724;2023-07-20T00:55:49;8.98;;;4.97;;
19891;SDS011;10108;50.142;8.724;2023-07-20T00:58:16;9.32;;;4.53;;
19891;SDS011;10108;50.142;8.724;2023-07-20T01:00:42;8.15;;;4.75;;
19891;SDS011;10108;50.142;8.724;2023-07-20T01:03:08;9.25;;;5.03;;
19891;SDS011;10108;50.142;8.724;2023-07-20T01:05:48;8.65;;;4.88;;
19891;SDS011;10108;50.142;8.724;2023-07-20T01:11:24;8.82;;;5.18;;
19891;SDS011;10108;50.142;8.724;2023-07-20T01:14:00;10.75;;;5.18;;
19891;SDS011;10108;50.142;8.724;2023-07-20T01:16:27;8.13;;;5.15;;
19891;SDS011;10108;50.142;8.724;2023-07-20T01:18:53;9.68;;;5.05;;
19891;SDS011;10108;50.142;8.724;2023-07-20T01:21:28;7.07;;;4.60;;
19891;SDS011;10108;50.142;8.724;2023-07-20T01:24:06;11.85;;;5.30;;
19891;SDS011;10108;50.142;8.724;2023-07-20T01:29:46;8.32;;;4.75;;
19891;SDS011;10108;50.142;8.724;2023-07-20T01:32:29;10.05;;;5.28;;
19891;SDS011;10108;50.142;8.724;2023-07-20T01:34:57;7.50;;;4.90;;
19891;SDS011;10108;50.142;8.724;2023-07-20T01:37:25;10.35;;;5.07;;
19891;SDS011;10108;50.142;8.724;2023-07-20T01:39:55;8.65;;;5.05;;
19891;SDS011;10108;50.142;8.724;2023-07-20T01:42:21;10.20;;;5.30;;
19891;SDS011;10108;50.142;8.724;2023-07-20T01:44:52;8.70;;;5.18;;
19891;SDS011;10108;50.142;8.724;2023-07-20T01:47:19;12.20;;;6.25;;
19891;SDS011;10108;50.142;8.724;2023-07-20T01:49:45;10.65;;;5.32;;
19891;SDS011;10108;50.142;8.724;2023-07-20T01:52:11;11.10;;;5.00;;
19891;SDS011;10108;50.142;8.724;2023-07-20T01:54:37;10.68;;;5.30;;
19891;SDS011;10108;50.142;8.724;2023-07-20T01:57:03;10.02;;;5.30;;
19891;SDS011;10108;50.142;8.724;2023-07-20T01:59:30;9.95;;;5.30;;
19891;SDS011;10108;50.142;8.724;2023-07-20T02:01:56;12.25;;;5.13;;
19891;SDS011;10108;50.142;8.724;2023-07-20T02:04:22;13.77;;;5.40;;
19891;SDS011;10108;50.142;8.724;2023-07-20T02:06:48;8.73;;;4.95;;
19891;SDS011;10108;50.142;8.724;2023-07-20T02:09:14;9.93;;;5.30;;
19891;SDS011;10108;50.142;8.724;2023-07-20T02:11:40;11.55;;;5.60;;
19891;SDS011;10108;50.142;8.724;2023-07-20T02:14:06;9.02;;;5.15;;
19891;SDS011;10108;50.142;8.724;2023-07-20T02:16:32;9.85;;;5.47;;
19891;SDS011;10108;50.142;8.724;2023-07-20T02:18:58;10.75;;;5.03;;
19891;SDS011;10108;50.142;8.724;2023-07-20T02:21:25;10.70;;;5.50;;
19891;SDS011;10108;50.142;8.724;2023-07-20T02:23:51;9.90;;;5.25;;
19891;SDS011;10108;50.142;8.724;2023-07-20T02:26:17;8.70;;;5.45;;
19891;SDS011;10108;50.142;8.724;2023-07-20T02:28:43;8.82;;;5.10;;
19891;SDS011;10108;50.142;8.724;2023-07-20T02:31:11;8.27;;;5.35;;
19891;SDS011;10108;50.142;8.724;2023-07-20T02:33:37;10.43;;;5.63;;
19891;SDS011;10108;50.142;8.724;2023-07-20T02:36:04;10.80;;;5.35;;
19891;SDS011;10108;50.142;8.724;2023-07-20T02:38:30;11.23;;;5.40;;
19891;SDS011;10108;50.142;8.724;2023-07-20T02:40:56;12.77;;;5.50;;
19891;SDS011;10108;50.142;8.724;2023-07-20T02:43:22;10.13;;;5.20;;
19891;SDS011;10108;50.142;8.724;2023-07-20T02:45:49;9.85;;;5.68;;
19891;SDS011;10108;50.142;8.724;2023-07-20T02:48:16;12.75;;;5.63;;
19891;SDS011;10108;50.142;8.724;2023-07-20T02:50:43;9.40;;;5.47;;
19891;SDS011;10108;50.142;8.724;2023-07-20T02:53:09;9.55;;;5.22;;
19891;SDS011;10108;50.142;8.724;2023-07-20T02:55:36;9.02;;;5.63;;
19891;SDS011;10108;50.142;8.724;2023-07-20T02:58:02;9.65;;;5.28;;
19891;SDS011;10108;50.142;8.724;2023-07-20T03:00:28;11.93;;;5.28;;
19891;SDS011;10108;50.142;8.724;2023-07-20T03:02:54;11.45;;;5.13;;
19891;SDS011;10108;50.142;8.724;2023-07-20T03:05:21;10.82;;;5.40;;
19891;SDS011;10108;50.142;8.724;2023-07-20T03:07:50;9.13;;;5.70;;
19891;SDS011;10108;50.142;8.724;2023-07-20T03:10:17;9.02;;;5.30;;
19891;SDS011;10108;50.142;8.724;2023-07-20T03:12:43;10.65;;;5.85;;
19891;SDS011;10108;50.142;8.724;2023-07-20T03:15:09;10.23;;;5.57;;
19891;SDS011;10108;50.142;8.724;2023-07-20T03:17:36;13.25;;;5.80;;
19891;SDS011;10108;50.142;8.724;2023-07-20T03:20:04;10.05;;;5.90;;
19891;SDS011;10108;50.142;8.724;2023-07-20T03:22:34;11.43;;;5.65;;
19891;SDS011;10108;50.142;8.724;2023-07-20T03:25:00;8.82;;;5.60;;
19891;SDS011;10108;50.142;8.724;2023-07-20T03:27:27;12.75;;;5.70;;
19891;SDS011;10108;50.142;8.724;2023-07-20T03:29:54;9.43;;;5.70;;
19891;SDS011;10108;50.142;8.724;2023-07-20T03:32:20;11.77;;;5.85;;
19891;SDS011;10108;50.142;8.724;2023-07-20T03:34:46;9.00;;;5.63;;
19891;SDS011;10108;50.142;8.724;2023-07-20T03:37:13;8.50;;;5.18;;
19891;SDS011;10108;50.142;8.724;2023-07-20T03:39:40;8.55;;;5.40;;
19891;SDS011;10108;50.142;8.724;2023-07-20T03:42:07;9.90;;;5.70;;
19891;SDS011;10108;50.142;8.724;2023-07-20T03:44:33;11.57;;;5.82;;
19891;SDS011;10108;50.142;8.724;2023-07-20T03:46:59;12.38;;;5.63;;
19891;SDS011;10108;50.142;8.724;2023-07-20T03:49:26;11.40;;;5.20;;
19891;SDS011;10108;50.142;8.724;2023-07-20T03:51:52;9.23;;;5.50;;
19891;SDS011;10108;50.142;8.724;2023-07-20T03:54:18;9.73;;;5.65;;
19891;SDS011;10108;50.142;8.724;2023-07-20T03:56:44;9.27;;;5.63;;
19891;SDS011;10108;50.142;8.724;2023-07-20T03:59:11;9.45;;;5.60;;
19891;SDS011;10108;50.142;8.724;2023-07-20T04:01:38;10.88;;;5.70;;
19891;SDS011;10108;50.142;8.724;2023-07-20T04:04:06;9.75;;;5.55;;
19891;SDS011;10108;50.142;8.724;2023-07-20T04:06:33;10.65;;;5.30;;
19891;SDS011;10108;50.142;8.724;2023-07-20T04:09:00;9.20;;;5.68;;
19891;SDS011;10108;50.142;8.724;2023-07-20T04:11:26;11.15;;;5.47;;
19891;SDS011;10108;50.142;8.724;2023-07-20T04:13:52;10.88;;;5.50;;
19891;SDS011;10108;50.142;8.724;2023-07-20T04:16:18;11.38;;;5.65;;
19891;SDS011;10108;50.142;8.724;2023-07-20T04:18:45;10.00;;;5.63;;
19891;SDS011;10108;50.142;8.724;2023-07-20T04:21:12;11.75;;;5.40;;
19891;SDS011;10108;50.142;8.724;2023-07-20T04:23:38;11.85;;;5.47;;
19891;SDS011;10108;50.142;8.724;2023-07-20T04:26:05;11.55;;;5.40;;
19891;SDS011;10108;50.142;8.724;2023-07-20T04:28:32;11.35;;;5.25;;
19891;SDS011;10108;50.142;8.724;2023-07-20T04:31:12;9.85;;;5.38;;
19891;SDS011;10108;50.142;8.724;2023-07-20T04:33:39;9.18;;;5.57;;
19891;SDS011;10108;50.142;8.724;2023-07-20T04:36:06;11.05;;;5.30;;
19891;SDS011;10108;50.142;8.724;2023-07-20T04:38:34;13.02;;;5.20;;
19891;SDS011;10108;50.142;8.724;2023-07-20T04:41:20;9.55;;;5.07;;
19891;SDS011;10108;50.142;8.724;2023-07-20T04:43:48;9.68;;;5.28;;
19891;SDS011;10108;50.142;8.724;2023-07-20T04:46:19;10.20;;;4.90;;
19891;SDS011;10108;50.142;8.724;2023-07-20T04:48:47;9.32;;;5.10;;
19891;SDS011;10108;50.142;8.724;2023-07-20T04:51:14;8.52;;;4.88;;
19891;SDS011;10108;50.142;8.724;2023-07-20T04:53:40;10.77;;;5.07;;
19891;SDS011;10108;50.142;8.724;2023-07-20T04:56:08;10.77;;;5.30;;
19891;SDS011;10108;50.142;8.724;2023-07-20T04:58:34;9.48;;;5.30;;
19891;SDS011;10108;50.142;8.724;2023-07-20T05:01:00;8.68;;;5.38;;
19891;SDS011;10108;50.142;8.724;2023-07-20T05:03:26;8.95;;;5.43;;
19891;SDS011;10108;50.142;8.724;2023-07-20T05:05:53;8.95;;;5.10;;
19891;SDS011;10108;50.142;8.724;2023-07-20T05:08:19;10.88;;;5.53;;
19891;SDS011;10108;50.142;8.724;2023-07-20T05:10:48;10.85;;;5.95;;
19891;SDS011;10108;50.142;8.724;2023-07-20T05:13:25;10.50;;;5.43;;
19891;SDS011;10108;50.142;8.724;2023-07-20T05:15:51;9.48;;;4.95;;
19891;SDS011;10108;50.142;8.724;2023-07-20T05:18:19;10.10;;;5.30;;
19891;SDS011;10108;50.142;8.724;2023-07-20T05:20:49;10.57;;;5.15;;
19891;SDS011;10108;50.142;8.724;2023-07-20T05:23:16;14.48;;;5.70;;
19891;SDS011;10108;50.142;8.724;2023-07-20T05:25:43;11.35;;;5.45;;
19891;SDS011;10108;50.142;8.724;2023-07-20T05:28:09;10.40;;;5.32;;
19891;SDS011;10108;50.142;8.724;2023-07-20T05:30:36;12.75;;;5.45;;
19891;SDS011;10108;50.142;8.724;2023-07-20T05:33:02;11.30;;;5.60;;
19891;SDS011;10108;50.142;8.724;2023-07-20T05:35:28;14.13;;;5.60;;
19891;SDS011;10108;50.142;8.724;2023-07-20T05:37:54;11.65;;;5.38;;
19891;SDS011;10108;50.142;8.724;2023-07-20T05:40:20;12.48;;;5.72;;
19891;SDS011;10108;50.142;8.724;2023-07-20T05:42:47;11.13;;;5.45;;
19891;SDS011;10108;50.142;8.724;2023-07-20T05:45:17;9.35;;;5.30;;
19891;SDS011;10108;50.142;8.724;2023-07-20T05:47:43;9.85;;;5.45;;
19891;SDS011;10108;50.142;8.724;2023-07-20T05:50:10;13.80;;;5.88;;
19891;SDS011;10108;50.142;8.724;2023-07-20T05:52:36;12.05;;;5.53;;
19891;SDS011;10108;50.142;8.724;2023-07-20T05:55:04;10.30;;;5.35;;
19891;SDS011;10108;50.142;8.724;2023-07-20T05:57:31;12.05;;;5.50;;
19891;SDS011;10108;50.142;8.724;2023-07-20T05:59:57;10.60;;;5.47;;
19891;SDS011;10108;50.142;8.724;2023-07-20T06:02:23;12.40;;;5.70;;
19891;SDS011;10108;50.142;8.724;2023-07-20T06:04:49;12.85;;;5.47;;
19891;SDS011;10108;50.142;8.724;2023-07-20T06:07:15;12.68;;;5.07;;
19891;SDS011;10108;50.142;8.724;2023-07-20T06:09:42;10.93;;;5.40;;
19891;SDS011;10108;50.142;8.724;2023-07-20T06:12:08;11.25;;;5.20;;
19891;SDS011;10108;50.142;8.724;2023-07-20T06:14:34;11.57;;;5.43;;
19891;SDS011;10108;50.142;8.724;2023-07-20T06:17:00;9.68;;;5.43;;
19891;SDS011;10108;50.142;8.724;2023-07-20T06:19:27;10.40;;;5.70;;
19891;SDS011;10108;50.142;8.724;2023-07-20T06:21:53;9.10;;;5.20;;
19891;SDS011;10108;50.142;8.724;2023-07-20T06:24:19;13.90;;;5.80;;
19891;SDS011;10108;50.142;8.724;2023-07-20T06:26:45;11.40;;;5.57;;
19891;SDS011;10108;50.142;8.724;2023-07-20T06:29:11;10.27;;;5.35;;
19891;SDS011;10108;50.142;8.724;2023-07-20T06:31:37;8.23;;;4.90;;
19891;SDS011;10108;50.142;8.724;2023-07-20T06:34:03;9.77;;;5.22;;
19891;SDS011;10108;50.142;8.724;2023-07-20T06:36:29;9.95;;;5.03;;
19891;SDS011;10108;50.142;8.724;2023-07-20T06:38:56;10.20;;;5.13;;
19891;SDS011;10108;50.142;8.724;2023-07-20T06:41:22;12.95;;;5.00;;
19891;SDS011;10108;50.142;8.724;2023-07-20T06:43:48;12.20;;;5.28;;
19891;SDS011;10108;50.142;8.724;2023-07-20T06:46:14;10.20;;;4.93;;
19891;SDS011;10108;50.142;8.724;2023-07-20T06:48:40;9.35;;;5.45;;
19891;SDS011;10108;50.142;8.724;2023-07-20T06:51:06;13.07;;;5.40;;
19891;SDS011;10108;50.142;8.724;2023-07-20T06:53:33;9.48;;;4.72;;
19891;SDS011;10108;50.142;8.724;2023-07-20T06:56:00;7.55;;;4.85;;
19891;SDS011;10108;50.142;8.724;2023-07-20T06:58:26;7.78;;;4.63;;
19891;SDS011;10108;50.142;8.724;2023-07-20T07:00:52;8.68;;;5.30;;
19891;SDS011;10108;50.142;8.724;2023-07-20T07:03:18;8.00;;;5.55;;
19891;SDS011;10108;50.142;8.724;2023-07-20T07:05:45;8.63;;;5.03;;
19891;SDS011;10108;50.142;8.724;2023-07-20T07:08:11;8.13;;;4.70;;
19891;SDS011;10108;50.142;8.724;2023-07-20T07:10:38;8.63;;;4.90;;
19891;SDS011;10108;50.142;8.724;2023-07-20T07:13:04;11.95;;;5.20;;
19891;SDS011;10108;50.142;8.724;2023-07-20T07:15:30;10.10;;;5.00;;
19891;SDS011;10108;50.142;8.724;2023-07-20T07:17:57;8.07;;;4.75;;
19891;SDS011;10108;50.142;8.724;2023-07-20T07:20:24;9.77;;;4.80;;
19891;SDS011;10108;50.142;8.724;2023-07-20T07:22:51;9.00;;;4.72;;
19891;SDS011;10108;50.142;8.724;2023-07-20T07:25:18;7.20;;;4.55;;
19891;SDS011;10108;50.142;8.724;2023-07-20T07:27:44;8.98;;;5.22;;
19891;SDS011;10108;50.142;8.724;2023-07-20T07:30:11;10.45;;;5.45;;
19891;SDS011;10108;50.142;8.724;2023-07-20T07:32:37;9.10;;;5.30;;
19891;SDS011;10108;50.142;8.724;2023-07-20T07:35:04;10.38;;;5.13;;
19891;SDS011;10108;50.142;8.724;2023-07-20T07:37:30;7.63;;;5.10;;
19891;SDS011;10108;50.142;8.724;2023-07-20T07:39:57;8.77;;;4.82;;
19891;SDS011;10108;50.142;8.724;2023-07-20T07:42:23;10.60;;;5.28;;
19891;SDS011;10108;50.142;8.724;2023-07-20T07:44:49;8.48;;;5.07;;
19891;SDS011;10108;50.142;8.724;2023-07-20T07:47:15;11.50;;;4.90;;
19891;SDS011;10108;50.142;8.724;2023-07-20T07:49:41;7.32;;;4.43;;
19891;SDS011;10108;50.142;8.724;2023-07-20T07:52:07;7.30;;;4.38;;
19891;SDS011;10108;50.142;8.724;2023-07-20T07:54:34;6.38;;;4.30;;
19891;SDS011;10108;50.142;8.724;2023-07-20T07:57:00;9.85;;;5.15;;
19891;SDS011;10108;50.142;8.724;2023-07-20T07:59:26;7.75;;;4.53;;
19891;SDS011;10108;50.142;8.724;2023-07-20T08:01:52;7.85;;;4.68;;
19891;SDS011;10108;50.142;8.724;2023-07-20T08:04:19;7.38;;;4.60;;
19891;SDS011;10108;50.142;8.724;2023-07-20T08:06:45;11.07;;;5.30;;
19891;SDS011;10108;50.142;8.724;2023-07-20T08:09:11;10.27;;;4.72;;
19891;SDS011;10108;50.142;8.724;2023-07-20T08:11:38;7.70;;;4.78;;
19891;SDS011;10108;50.142;8.724;2023-07-20T08:14:05;8.88;;;5.20;;
19891;SDS011;10108;50.142;8.724;2023-07-20T08:16:31;8.63;;;4.65;;
19891;SDS011;10108;50.142;8.724;2023-07-20T08:18:57;8.25;;;5.00;;
19891;SDS011;10108;50.142;8.724;2023-07-20T08:21:23;7.65;;;4.60;;
19891;SDS011;10108;50.142;8.724;2023-07-20T08:23:49;9.05;;;5.00;;
19891;SDS011;10108;50.142;8.724;2023-07-20T08:26:15;8.48;;;4.97;;
19891;SDS011;10108;50.142;8.724;2023-07-20T08:28:44;11.48;;;5.20;;
19891;SDS011;10108;50.142;8.724;2023-07-20T08:31:11;8.75;;;5.47;;
19891;SDS011;10108;50.142;8.724;2023-07-20T08:33:37;7.55;;;4.93;;
19891;SDS011;10108;50.142;8.724;2023-07-20T08:36:03;10.45;;;5.22;;
19891;SDS011;10108;50.142;8.724;2023-07-20T08:38:29;8.77;;;4.80;;
19891;SDS011;10108;50.142;8.724;2023-07-20T08:40:55;7.13;;;5.03;;
19891;SDS011;10108;50.142;8.724;2023-07-20T08:43:22;10.75;;;5.15;;
19891;SDS011;10108;50.142;8.724;2023-07-20T08:45:53;10.63;;;4.88;;
19891;SDS011;10108;50.142;8.724;2023-07-20T08:48:21;6.93;;;4.53;;
19891;SDS011;10108;50.142;8.724;2023-07-20T08:50:47;9.05;;;5.00;;
19891;SDS011;10108;50.142;8.724;2023-07-20T08:53:16;11.05;;;5.10;;
19891;SDS011;10108;50.142;8.724;2023-07-20T08:55:46;8.30;;;4.72;;
19891;SDS011;10108;50.142;8.724;2023-07-20T08:58:15;7.97;;;4.90;;
19891;SDS011;10108;50.142;8.724;2023-07-20T09:00:42;6.95;;;4.13;;
19891;SDS011;10108;50.142;8.724;2023-07-20T09:03:09;8.45;;;4.25;;
19891;SDS011;10108;50.142;8.724;2023-07-20T09:05:36;7.43;;;4.93;;
19891;SDS011;10108;50.142;8.724;2023-07-20T09:08:04;8.88;;;4.90;;
19891;SDS011;10108;50.142;8.724;2023-07-20T09:10:30;8.88;;;5.10;;
19891;SDS011;10108;50.142;8.724;2023-07-20T09:12:56;7.35;;;4.25;;
19891;SDS011;10108;50.142;8.724;2023-07-20T09:15:23;8.07;;;4.70;;
19891;SDS011;10108;50.142;8.724;2023-07-20T09:17:50;7.47;;;4.50;;
19891;SDS011;10108;50.142;8.724;2023-07-20T09:20:17;6.03;;;4.10;;
19891;SDS011;10108;50.142;8.724;2023-07-20T09:22:44;7.50;;;4.45;;
19891;SDS011;10108;50.142;8.724;2023-07-20T09:25:14;6.28;;;4.40;;
19891;SDS011;10108;50.142;8.724;2023-07-20T09:27:44;6.57;;;4.53;;
19891;SDS011;10108;50.142;8.724;2023-07-20T09:30:11;5.95;;;4.70;;
19891;SDS011;10108;50.142;8.724;2023-07-20T09:35:13;6.72;;;4.85;;
19891;SDS011;10108;50.142;8.724;2023-07-20T09:37:45;6.88;;;4.50;;
19891;SDS011;10108;50.142;8.724;2023-07-20T09:40:14;7.82;;;4.43;;
19891;SDS011;10108;50.142;8.724;2023-07-20T09:42:42;7.60;;;4.72;;
19891;SDS011;10108;50.142;8.724;2023-07-20T09:45:09;9.20;;;4.75;;
19891;SDS011;10108;50.142;8.724;2023-07-20T09:47:36;7.72;;;4.60;;
19891;SDS011;10108;50.142;8.724;2023-07-20T09:50:06;7.93;;;4.63;;
19891;SDS011;10108;50.142;8.724;2023-07-20T09:52:39;5.35;;;3.92;;
19891;SDS011;10108;50.142;8.724;2023-07-20T09:55:07;8.85;;;4.80;;
19891;SDS011;10108;50.142;8.724;2023-07-20T09:57:34;6.25;;;4.43;;
19891;SDS011;10108;50.142;8.724;2023-07-20T10:00:04;7.32;;;4.57;;
19891;SDS011;10108;50.142;8.724;2023-07-20T10:02:45;7.05;;;4.82;;
19891;SDS011;10108;50.142;8.724;2023-07-20T10:05:12;7.53;;;4.40;;
19891;SDS011;10108;50.142;8.724;2023-07-20T10:07:49;8.55;;;4.68;;
19891;SDS011;10108;50.142;8.724;2023-07-20T10:10:18;7.72;;;4.63;;
19891;SDS011;10108;50.142;8.724;2023-07-20T10:12:47;5.72;;;4.38;;
19891;SDS011;10108;50.142;8.724;2023-07-20T10:15:28;6.43;;;4.60;;
19891;SDS011;10108;50.142;8.724;2023-07-20T10:18:09;6.60;;;4.25;;
19891;SDS011;10108;50.142;8.724;2023-07-20T10:20:40;7.45;;;4.68;;
19891;SDS011;10108;50.142;8.724;2023-07-20T10:23:09;8.93;;;4.80;;
19891;SDS011;10108;50.142;8.724;2023-07-20T10:25:35;7.28;;;5.00;;
19891;SDS011;10108;50.142;8.724;2023-07-20T10:28:06;7.95;;;4.40;;
19891;SDS011;10108;50.142;8.724;2023-07-20T10:30:36;7.88;;;4.70;;
19891;SDS011;10108;50.142;8.724;2023-07-20T10:33:02;7.03;;;4.43;;
19891;SDS011;10108;50.142;8.724;2023-07-20T10:35:29;7.53;;;4.30;;
19891;SDS011;10108;50.142;8.724;2023-07-20T10:38:00;8.68;;;4.85;;
19891;SDS011;10108;50.142;8.724;2023-07-20T10:40:27;6.82;;;4.65;;
19891;SDS011;10108;50.142;8.724;2023-07-20T10:43:02;6.97;;;4.65;;
19891;SDS011;10108;50.142;8.724;2023-07-20T10:45:33;10.13;;;5.10;;
19891;SDS011;10108;50.142;8.724;2023-07-20T10:48:05;7.40;;;4.57;;
19891;SDS011;10108;50.142;8.724;2023-07-20T10:50:32;9.25;;;5.25;;
19891;SDS011;10108;50.142;8.724;2023-07-20T10:55:44;4.97;;;4.03;;
19891;SDS011;10108;50.142;8.724;2023-07-20T10:58:12;6.78;;;4.15;;
19891;SDS011;10108;50.142;8.724;2023-07-20T11:00:55;6.93;;;4.53;;
19891;SDS011;10108;50.142;8.724;2023-07-20T11:03:35;9.98;;;4.70;;
19891;SDS011;10108;50.142;8.724;2023-07-20T11:08:54;7.57;;;4.63;;
19891;SDS011;10108;50.142;8.724;2023-07-20T11:11:24;8.80;;;4.88;;
19891;SDS011;10108;50.142;8.724;2023-07-20T11:14:02;6.00;;;4.35;;
19891;SDS011;10108;50.142;8.724;2023-07-20T11:19:13;8.32;;;4.38;;
19891;SDS011;10108;50.142;8.724;2023-07-20T11:21:44;5.70;;;4.50;;
19891;SDS011;10108;50.142;8.724;2023-07-20T11:24:12;8.85;;;4.50;;
19891;SDS011;10108;50.142;8.724;2023-07-20T11:26:39;6.57;;;4.43;;
19891;SDS011;10108;50.142;8.724;2023-07-20T11:29:09;6.50;;;4.38;;
19891;SDS011;10108;50.142;8.724;2023-07-20T11:31:37;6.75;;;4.40;;
19891;SDS011;10108;50.142;8.724;2023-07-20T11:34:10;6.90;;;4.53;;
19891;SDS011;10108;50.142;8.724;2023-07-20T11:36:41;6.60;;;4.50;;
19891;SDS011;10108;50.142;8.724;2023-07-20T11:39:27;11.75;;;4.35;;
19891;SDS011;10108;50.142;8.724;2023-07-20T11:41:55;6.47;;;4.13;;
19891;SDS011;10108;50.142;8.724;2023-07-20T11:44:31;5.82;;;3.90;;
19891;SDS011;10108;50.142;8.724;2023-07-20T11:47:08;5.85;;;4.25;;
19891;SDS011;10108;50.142;8.724;2023-07-20T11:49:36;6.82;;;4.60;;
19891;SDS011;10108;50.142;8.724;2023-07-20T11:52:05;5.78;;;4.22;;
19891;SDS011;10108;50.142;8.724;2023-07-20T11:54:37;8.40;;;4.35;;
19891;SDS011;10108;50.142;8.724;2023-07-20T11:57:05;6.35;;;4.43;;
19891;SDS011;10108;50.142;8.724;2023-07-20T11:59:31;8.07;;;4.43;;
19891;SDS011;10108;50.142;8.724;2023-07-20T12:01:58;8.23;;;4.20;;
19891;SDS011;10108;50.142;8.724;2023-07-20T12:04:28;5.57;;;3.80;;
19891;SDS011;10108;50.142;8.724;2023-07-20T12:06:56;4.78;;;4.05;;
19891;SDS011;10108;50.142;8.724;2023-07-20T12:09:22;6.88;;;4.10;;
19891;SDS011;10108;50.142;8.724;2023-07-20T12:11:49;9.40;;;4.65;;
19891;SDS011;10108;50.142;8.724;2023-07-20T12:14:15;7.15;;;4.45;;
19891;SDS011;10108;50.142;8.724;2023-07-20T12:16:42;10.80;;;4.30;;
19891;SDS011;10108;50.142;8.724;2023-07-20T12:19:09;8.27;;;4.45;;
19891;SDS011;10108;50.142;8.724;2023-07-20T12:21:37;8.00;;;4.80;;
19891;SDS011;10108;50.142;8.724;2023-07-20T12:24:08;7.47;;;4.50;;
19891;SDS011;10108;50.142;8.724;2023-07-20T12:26:36;6.15;;;4.50;;
19891;SDS011;10108;50.142;8.724;2023-07-20T12:29:03;6.00;;;4.32;;
19891;SDS011;10108;50.142;8.724;2023-07-20T12:31:29;6.50;;;4.35;;
19891;SDS011;10108;50.142;8.724;2023-07-20T12:33:56;5.90;;;3.95;;
19891;SDS011;10108;50.142;8.724;2023-07-20T12:36:24;5.65;;;4.13;;
19891;SDS011;10108;50.142;8.724;2023-07-20T12:38:50;9.32;;;4.47;;
19891;SDS011;10108;50.142;8.724;2023-07-20T12:41:16;7.15;;;4.20;;
19891;SDS011;10108;50.142;8.724;2023-07-20T12:43:43;9.90;;;4.50;;
19891;SDS011;10108;50.142;8.724;2023-07-20T12:46:10;6.22;;;4.22;;
19891;SDS011;10108;50.142;8.724;2023-07-20T12:48:38;5.35;;;3.90;;
19891;SDS011;10108;50.142;8.724;2023-07-20T12:51:07;5.22;;;3.97;;
19891;SDS011;10108;50.142;8.724;2023-07-20T12:53:34;5.93;;;4.22;;
19891;SDS011;10108;50.142;8.724;2023-07-20T12:56:01;5.28;;;3.90;;
19891;SDS011;10108;50.142;8.724;2023-07-20T12:58:27;7.78;;;4.40;;
19891;SDS011;10108;50.142;8.724;2023-07-20T13:00:54;4.22;;;3.83;;
19891;SDS011;10108;50.142;8.724;2023-07-20T13:03:20;6.32;;;4.00;;
19891;SDS011;10108;50.142;8.724;2023-07-20T13:05:47;7.05;;;4.70;;
19891;SDS011;10108;50.142;8.724;2023-07-20T13:08:14;7.25;;;4.40;;
19891;SDS011;10108;50.142;8.724;2023-07-20T13:10:41;4.68;;;4.10;;
19891;SDS011;10108;50.142;8.724;2023-07-20T13:13:07;6.68;;;4.53;;
19891;SDS011;10108;50.142;8.724;2023-07-20T13:15:40;6.05;;;4.35;;
19891;SDS011;10108;50.142;8.724;2023-07-20T13:18:08;5.75;;;3.83;;
19891;SDS011;10108;50.142;8.724;2023-07-20T13:20:34;5.65;;;4.10;;
19891;SDS011;10108;50.142;8.724;2023-07-20T13:23:00;4.32;;;3.80;;
19891;SDS011;10108;50.142;8.724;2023-07-20T13:25:26;5.25;;;4.15;;
19891;SDS011;10108;50.142;8.724;2023-07-20T13:27:53;7.00;;;3.88;;
19891;SDS011;10108;50.142;8.724;2023-07-20T13:30:19;6.93;;;4.50;;
19891;SDS011;10108;50.142;8.724;2023-07-20T13:32:47;5.20;;;4.15;;
19891;SDS011;10108;50.142;8.724;2023-07-20T13:35:13;6.95;;;4.70;;
19891;SDS011;10108;50.142;8.724;2023-07-20T13:37:40;6.80;;;4.70;;
19891;SDS011;10108;50.142;8.724;2023-07-20T13:40:07;6.47;;;4.75;;
19891;SDS011;10108;50.142;8.724;2023-07-20T13:42:39;7.07;;;4.85;;
19891;SDS011;10108;50.142;8.724;2023-07-20T13:45:06;6.57;;;4.50;;
19891;SDS011;10108;50.142;8.724;2023-07-20T13:47:32;8.18;;;4.65;;
19891;SDS011;10108;50.142;8.724;2023-07-20T13:49:59;6.50;;;4.25;;
19891;SDS011;10108;50.142;8.724;2023-07-20T13:52:25;6.70;;;4.30;;
19891;SDS011;10108;50.142;8.724;2023-07-20T13:54:51;6.32;;;4.18;;
19891;SDS011;10108;50.142;8.724;2023-07-20T13:57:17;5.50;;;4.05;;
19891;SDS011;10108;50.142;8.724;2023-07-20T13:59:44;5.53;;;4.30;;
19891;SDS011;10108;50.142;8.724;2023-07-20T14:02:10;7.32;;;4.20;;
19891;SDS011;10108;50.142;8.724;2023-07-20T14:04:36;5.72;;;4.50;;
19891;SDS011;10108;50.142;8.724;2023-07-20T14:07:02;6.60;;;4.72;;
19891;SDS011;10108;50.142;8.724;2023-07-20T14:09:29;4.95;;;4.20;;
19891;SDS011;10108;50.142;8.724;2023-07-20T14:11:55;6.57;;;4.32;;
19891;SDS011;10108;50.142;8.724;2023-07-20T14:14:21;6.13;;;4.30;;
19891;SDS011;10108;50.142;8.724;2023-07-20T14:16:47;5.07;;;3.90;;
19891;SDS011;10108;50.142;8.724;2023-07-20T14:19:13;6.95;;;4.60;;
19891;SDS011;10108;50.142;8.724;2023-07-20T14:21:39;7.03;;;4.00;;
19891;SDS011;10108;50.142;8.724;2023-07-20T14:24:05;6.35;;;4.50;;
19891;SDS011;10108;50.142;8.724;2023-07-20T14:26:31;4.97;;;4.30;;
19891;SDS011;10108;50.142;8.724;2023-07-20T14:28:58;6.32;;;4.40;;
19891;SDS011;10108;50.142;8.724;2023-07-20T14:31:24;7.18;;;4.38;;
19891;SDS011;10108;50.142;8.724;2023-07-20T14:33:50;5.60;;;4.28;;
19891;SDS011;10108;50.142;8.724;2023-07-20T14:36:16;6.15;;;4.28;;
19891;SDS011;10108;50.142;8.724;2023-07-20T14:38:42;5.68;;;4.43;;
19891;SDS011;10108;50.142;8.724;2023-07-20T14:41:08;4.75;;;4.10;;
19891;SDS011;10108;50.142;8.724;2023-07-20T14:43:35;8.73;;;4.43;;
19891;SDS011;10108;50.142;8.724;2023-07-20T14:46:01;5.60;;;4.07;;
19891;SDS011;10108;50.142;8.724;2023-07-20T14:48:27;5.60;;;4.50;;
19891;SDS011;10108;50.142;8.724;2023-07-20T14:50:53;7.25;;;4.60;;
19891;SDS011;10108;50.142;8.724;2023-07-20T14:53:19;7.38;;;4.47;;
19891;SDS011;10108;50.142;8.724;2023-07-20T14:55:45;5.65;;;4.30;;
19891;SDS011;10108;50.142;8.724;2023-07-20T14:58:11;6.38;;;4.40;;
19891;SDS011;10108;50.142;8.724;2023-07-20T15:00:38;6.15;;;4.30;;
19891;SDS011;10108;50.142;8.724;2023-07-20T15:03:04;5.43;;;4.22;;